createdAt,value
2022-07-27T00:00:05.886Z,21.20
2022-07-27T00:02:42.881Z,21.10
2022-07-27T00:05:13.757Z,21.10
2022-07-27T00:07:44.633Z,21.00
2022-07-27T00:10:16.318Z,21.10
2022-07-27T00:12:47.903Z,21.00
2022-07-27T00:15:18.972Z,21.00
2022-07-27T00:17:49.838Z,21.00
2022-07-27T00:20:22.918Z,21.00
2022-07-27T00:22:59.452Z,20.90
2022-07-27T00:25:30.460Z,20.90
2022-07-27T00:28:03.170Z,20.90
2022-07-27T00:30:34.145Z,20.90
2022-07-27T00:33:06.018Z,20.90
2022-07-27T00:35:36.948Z,20.90
2022-07-27T00:38:07.914Z,20.80
2022-07-27T00:40:38.790Z,20.90
2022-07-27T00:43:09.762Z,21.00
2022-07-27T00:45:40.741Z,21.00
2022-07-27T00:48:12.020Z,21.00
2022-07-27T00:50:43.801Z,21.00
2022-07-27T00:53:16.862Z,21.00
2022-07-27T00:55:48.894Z,20.90
2022-07-27T00:58:19.865Z,21.00
2022-07-27T01:00:50.757Z,21.00
2022-07-27T01:03:23.313Z,21.00
2022-07-27T01:06:02.023Z,21.00
2022-07-27T01:08:33.543Z,21.00
2022-07-27T01:11:04.771Z,21.00
2022-07-27T01:13:36.896Z,21.00
2022-07-27T01:16:08.180Z,21.10
2022-07-27T01:18:40.075Z,21.10
2022-07-27T01:21:10.958Z,21.20
2022-07-27T01:23:41.826Z,21.10
2022-07-27T01:26:12.747Z,21.10
2022-07-27T01:28:45.731Z,21.10
2022-07-27T01:31:16.723Z,21.10
2022-07-27T01:33:47.671Z,21.00
2022-07-27T01:36:19.024Z,20.90
2022-07-27T01:38:50.017Z,20.90
2022-07-27T01:41:21.023Z,20.80
2022-07-27T01:43:51.960Z,20.70
2022-07-27T01:46:24.182Z,20.70
2022-07-27T01:48:55.256Z,20.60
2022-07-27T01:51:26.504Z,20.50
2022-07-27T01:53:57.474Z,20.40
2022-07-27T01:56:28.392Z,20.40
2022-07-27T01:58:59.995Z,20.30
2022-07-27T02:01:31.061Z,20.30
2022-07-27T02:04:02.251Z,20.30
2022-07-27T02:06:33.182Z,20.30
2022-07-27T02:09:04.183Z,20.30
2022-07-27T02:11:53.886Z,20.20
2022-07-27T02:14:25.976Z,20.20
2022-07-27T02:16:57.913Z,20.10
2022-07-27T02:19:29.684Z,20.10
2022-07-27T02:22:01.731Z,20.10
2022-07-27T02:24:32.719Z,20.00
2022-07-27T02:27:04.953Z,20.00
2022-07-27T02:29:35.891Z,19.90
2022-07-27T02:32:06.909Z,19.90
2022-07-27T02:34:37.900Z,19.80
2022-07-27T02:37:09.151Z,19.80
2022-07-27T02:39:40.047Z,19.70
2022-07-27T02:42:11.102Z,19.60
2022-07-27T02:44:43.114Z,19.50
2022-07-27T02:47:14.136Z,19.50
2022-07-27T02:49:45.034Z,19.40
2022-07-27T02:52:16.008Z,19.40
2022-07-27T02:54:46.922Z,19.20
2022-07-27T02:57:18.114Z,19.20
2022-07-27T02:59:49.094Z,19.30
2022-07-27T03:02:20.110Z,19.30
2022-07-27T03:04:51.159Z,19.20
2022-07-27T03:07:22.167Z,19.30
2022-07-27T03:09:53.090Z,19.20
2022-07-27T03:12:24.058Z,19.20
2022-07-27T03:14:55.105Z,19.10
2022-07-27T03:17:26.667Z,19.10
2022-07-27T03:19:57.631Z,19.10
2022-07-27T03:22:30.854Z,19.00
2022-07-27T03:25:02.032Z,19.00
2022-07-27T03:27:33.119Z,19.00
2022-07-27T03:30:06.146Z,18.90
2022-07-27T03:32:37.176Z,18.90
2022-07-27T03:35:08.716Z,18.90
2022-07-27T03:37:40.039Z,18.90
2022-07-27T03:40:11.829Z,18.90
2022-07-27T03:42:42.863Z,18.90
2022-07-27T03:45:13.842Z,18.90
2022-07-27T03:47:44.861Z,18.90
2022-07-27T03:50:15.782Z,18.90
2022-07-27T03:52:46.975Z,18.90
2022-07-27T03:55:21.920Z,18.90
2022-07-27T03:57:53.107Z,18.80
2022-07-27T04:00:24.233Z,18.80
2022-07-27T04:02:56.514Z,18.80
2022-07-27T04:05:29.583Z,18.70
2022-07-27T04:08:00.970Z,18.70
2022-07-27T04:10:32.408Z,18.60
2022-07-27T04:13:03.550Z,18.60
2022-07-27T04:15:36.586Z,18.50
2022-07-27T04:18:07.827Z,18.60
2022-07-27T04:20:38.790Z,18.60
2022-07-27T04:23:09.803Z,18.50
2022-07-27T04:25:40.751Z,18.50
2022-07-27T04:28:13.011Z,18.50
2022-07-27T04:30:44.578Z,18.60
2022-07-27T04:33:15.796Z,18.60
2022-07-27T04:35:47.469Z,18.70
2022-07-27T04:38:18.443Z,18.70
2022-07-27T04:40:50.490Z,18.70
2022-07-27T04:43:23.812Z,18.80
2022-07-27T04:45:54.801Z,18.80
2022-07-27T04:48:25.876Z,18.90
2022-07-27T04:50:56.849Z,19.00
2022-07-27T04:53:27.857Z,19.00
2022-07-27T04:55:58.899Z,19.10
2022-07-27T04:58:29.893Z,19.20
2022-07-27T05:01:00.904Z,19.20
2022-07-27T05:03:32.021Z,19.20
2022-07-27T05:06:03.250Z,19.30
2022-07-27T05:08:35.307Z,19.40
2022-07-27T05:11:06.473Z,19.40
2022-07-27T05:13:41.123Z,19.50
2022-07-27T05:16:12.606Z,19.60
2022-07-27T05:18:45.175Z,19.60
2022-07-27T05:21:16.147Z,19.70
2022-07-27T05:23:47.129Z,19.70
2022-07-27T05:26:18.335Z,19.80
2022-07-27T05:28:49.580Z,19.90
2022-07-27T05:31:20.784Z,20.00
2022-07-27T05:33:57.948Z,20.00
2022-07-27T05:36:29.777Z,20.10
2022-07-27T05:39:02.039Z,20.20
2022-07-27T05:41:33.389Z,20.10
2022-07-27T05:44:05.176Z,20.20
2022-07-27T05:46:36.616Z,20.30
2022-07-27T05:49:07.638Z,20.30
2022-07-27T05:51:38.762Z,20.40
2022-07-27T05:54:11.341Z,20.40
2022-07-27T05:56:45.744Z,20.50
2022-07-27T05:59:18.627Z,20.60
2022-07-27T06:01:51.651Z,20.70
2022-07-27T06:04:25.139Z,20.80
2022-07-27T06:07:16.795Z,20.90
2022-07-27T06:09:49.953Z,21.10
2022-07-27T06:12:22.304Z,21.20
2022-07-27T06:15:03.905Z,21.20
2022-07-27T06:17:36.085Z,21.30
2022-07-27T06:20:09.012Z,21.50
2022-07-27T06:22:52.133Z,21.60
2022-07-27T06:25:34.041Z,21.70
2022-07-27T06:28:07.285Z,21.80
2022-07-27T06:30:38.381Z,21.80
2022-07-27T06:33:09.489Z,22.00
2022-07-27T06:35:41.914Z,22.00
2022-07-27T06:38:13.686Z,22.20
2022-07-27T06:40:45.032Z,22.20
2022-07-27T06:43:17.475Z,22.30
2022-07-27T06:45:48.957Z,22.40
2022-07-27T06:48:21.444Z,22.40
2022-07-27T06:50:53.704Z,22.50
2022-07-27T06:53:25.053Z,22.50
2022-07-27T06:55:58.236Z,22.60
2022-07-27T06:58:30.737Z,22.70
2022-07-27T07:01:02.542Z,22.80
2022-07-27T07:03:33.848Z,22.80
2022-07-27T07:06:05.085Z,22.80
2022-07-27T07:08:36.638Z,22.90
2022-07-27T07:11:09.246Z,22.90
2022-07-27T07:13:44.556Z,23.00
2022-07-27T07:16:16.305Z,23.00
2022-07-27T07:18:52.018Z,23.10
2022-07-27T07:21:23.661Z,23.20
2022-07-27T07:23:54.786Z,23.30
2022-07-27T07:26:25.788Z,23.50
2022-07-27T07:28:56.836Z,23.60
2022-07-27T07:31:28.044Z,23.80
2022-07-27T07:34:00.087Z,23.90
2022-07-27T07:36:31.305Z,24.00
2022-07-27T07:39:02.280Z,24.20
2022-07-27T07:41:33.332Z,24.30
2022-07-27T07:44:04.585Z,24.30
2022-07-27T07:46:37.231Z,24.30
2022-07-27T07:49:08.637Z,24.30
2022-07-27T07:51:39.763Z,24.40
2022-07-27T07:54:11.209Z,24.40
2022-07-27T07:56:42.269Z,24.50
2022-07-27T07:59:13.998Z,24.50
2022-07-27T08:01:45.234Z,24.50
2022-07-27T08:04:16.373Z,24.60
2022-07-27T08:06:47.797Z,24.80
2022-07-27T08:09:21.344Z,25.10
2022-07-27T08:11:52.607Z,25.20
2022-07-27T08:14:26.400Z,25.30
2022-07-27T08:16:57.418Z,25.30
2022-07-27T08:19:28.508Z,25.30
2022-07-27T08:21:59.595Z,25.40
2022-07-27T08:24:31.316Z,25.60
2022-07-27T08:27:02.358Z,25.70
2022-07-27T08:29:36.884Z,25.80
2022-07-27T08:32:08.688Z,26.00
2022-07-27T08:34:39.962Z,26.20
2022-07-27T08:37:15.049Z,26.30
2022-07-27T08:40:38.278Z,26.40
2022-07-27T08:42:41.418Z,26.50
2022-07-27T08:45:19.851Z,26.50
2022-07-27T08:47:50.812Z,26.30
2022-07-27T08:50:29.172Z,26.40
2022-07-27T08:53:05.744Z,26.50
2022-07-27T08:55:40.504Z,26.40
2022-07-27T08:58:13.498Z,26.30
2022-07-27T09:00:50.248Z,26.40
2022-07-27T09:03:23.423Z,26.30
2022-07-27T09:05:56.572Z,26.20
2022-07-27T09:08:30.953Z,26.20
2022-07-27T09:11:13.200Z,26.20
2022-07-27T09:13:44.342Z,26.10
2022-07-27T09:16:18.709Z,26.10
2022-07-27T09:19:00.709Z,26.20
2022-07-27T09:21:33.904Z,26.10
2022-07-27T09:24:29.677Z,26.10
2022-07-27T09:27:05.877Z,25.90
2022-07-27T09:29:37.536Z,25.80
2022-07-27T09:32:17.906Z,25.70
2022-07-27T09:34:49.090Z,25.60
2022-07-27T09:37:27.981Z,25.70
2022-07-27T09:40:24.189Z,25.50
2022-07-27T09:44:12.549Z,25.40
2022-07-27T09:46:10.121Z,25.30
2022-07-27T09:48:41.457Z,25.40
2022-07-27T09:51:57.762Z,25.40
2022-07-27T09:54:10.606Z,25.60
2022-07-27T09:56:41.986Z,25.70
2022-07-27T09:59:19.258Z,25.80
2022-07-27T10:01:54.680Z,25.90
2022-07-27T10:04:26.443Z,25.80
2022-07-27T10:07:03.302Z,25.60
2022-07-27T10:09:37.485Z,25.50
2022-07-27T10:12:09.668Z,25.40
2022-07-27T10:14:40.791Z,25.60
2022-07-27T10:17:13.623Z,25.80
2022-07-27T10:19:52.227Z,26.10
2022-07-27T10:22:49.240Z,26.40
2022-07-27T10:25:24.559Z,26.70
2022-07-27T10:28:17.646Z,26.90
2022-07-27T10:30:54.304Z,27.00
2022-07-27T10:33:49.822Z,27.10
2022-07-27T10:36:23.800Z,27.20
2022-07-27T10:38:58.527Z,27.30
2022-07-27T10:41:40.488Z,27.40
2022-07-27T10:44:23.812Z,27.60
2022-07-27T10:47:01.661Z,27.80
2022-07-27T10:49:40.560Z,28.00
2022-07-27T10:52:50.362Z,28.10
2022-07-27T10:55:30.659Z,28.30
2022-07-27T10:58:10.540Z,28.50
2022-07-27T11:00:54.484Z,28.70
2022-07-27T11:03:41.509Z,28.80
2022-07-27T11:06:55.465Z,28.80
2022-07-27T11:10:02.902Z,28.60
2022-07-27T11:12:12.008Z,28.50
2022-07-27T11:14:54.700Z,28.40
2022-07-27T11:17:54.784Z,28.30
2022-07-27T11:20:24.159Z,28.30
2022-07-27T11:23:48.709Z,28.40
2022-07-27T11:26:02.828Z,28.60
2022-07-27T11:28:36.225Z,28.90
2022-07-27T11:31:10.758Z,29.10
2022-07-27T11:33:58.434Z,29.20
2022-07-27T11:36:58.355Z,29.20
2022-07-27T11:42:24.709Z,29.90
2022-07-27T11:44:55.744Z,29.90
2022-07-27T11:47:28.530Z,29.70
2022-07-27T11:50:07.844Z,29.60
2022-07-27T11:52:39.108Z,29.40
2022-07-27T11:55:12.401Z,29.20
2022-07-27T11:57:44.707Z,29.00
2022-07-27T12:00:16.103Z,29.00
2022-07-27T12:02:51.818Z,28.90
2022-07-27T12:05:23.007Z,28.90
2022-07-27T12:07:54.656Z,29.00
2022-07-27T12:10:25.793Z,29.20
2022-07-27T12:12:56.787Z,29.30
2022-07-27T12:15:45.482Z,29.40
2022-07-27T12:18:17.113Z,29.60
2022-07-27T12:20:49.059Z,29.80
2022-07-27T12:23:29.349Z,29.90
2022-07-27T12:26:21.170Z,30.10
2022-07-27T12:29:11.570Z,30.20
2022-07-27T12:31:49.132Z,30.20
2022-07-27T12:34:20.095Z,30.10
2022-07-27T12:36:51.228Z,30.00
2022-07-27T12:39:27.996Z,29.90
2022-07-27T12:42:08.076Z,29.70
2022-07-27T12:44:42.859Z,29.50
2022-07-27T12:47:32.475Z,29.50
2022-07-27T12:50:18.742Z,29.50
2022-07-27T12:52:52.131Z,29.70
2022-07-27T12:55:23.667Z,29.80
2022-07-27T12:57:56.516Z,30.00
2022-07-27T13:00:34.174Z,30.10
2022-07-27T13:03:06.838Z,30.50
2022-07-27T13:05:37.906Z,30.90
2022-07-27T13:08:10.425Z,30.80
2022-07-27T13:10:41.512Z,30.70
2022-07-27T13:13:12.616Z,30.80
2022-07-27T13:15:43.591Z,30.80
2022-07-27T13:18:15.391Z,30.80
2022-07-27T13:20:48.596Z,31.00
2022-07-27T13:23:19.567Z,31.50
2022-07-27T13:25:51.924Z,32.00
2022-07-27T13:28:22.939Z,32.10
2022-07-27T13:30:54.577Z,32.30
2022-07-27T13:33:25.664Z,32.50
2022-07-27T13:36:00.359Z,32.40
2022-07-27T13:38:32.218Z,32.40
2022-07-27T13:41:03.360Z,32.40
2022-07-27T13:43:34.408Z,32.40
2022-07-27T13:46:08.266Z,32.40
2022-07-27T13:48:39.321Z,32.60
2022-07-27T13:51:10.437Z,32.80
2022-07-27T13:53:41.415Z,32.80
2022-07-27T13:56:12.502Z,33.10
2022-07-27T13:58:44.153Z,33.30
2022-07-27T14:01:15.483Z,33.40
2022-07-27T14:03:46.563Z,33.60
2022-07-27T14:06:20.507Z,33.90
2022-07-27T14:08:53.278Z,34.00
2022-07-27T14:11:24.652Z,33.70
2022-07-27T14:13:55.800Z,33.40
2022-07-27T14:16:26.943Z,33.30
2022-07-27T14:18:58.517Z,33.30
2022-07-27T14:21:29.588Z,33.30
2022-07-27T14:24:01.244Z,33.60
2022-07-27T14:26:32.567Z,34.10
2022-07-27T14:29:03.617Z,34.50
2022-07-27T14:31:35.073Z,34.80
2022-07-27T14:34:06.183Z,34.80
2022-07-27T14:36:37.391Z,35.10
2022-07-27T14:39:08.361Z,35.30
2022-07-27T14:41:44.195Z,35.50
2022-07-27T14:44:15.455Z,35.60
2022-07-27T14:46:49.863Z,35.90
2022-07-27T14:49:22.728Z,36.20
2022-07-27T14:51:54.241Z,36.30
2022-07-27T14:54:25.747Z,36.40
2022-07-27T14:56:56.723Z,36.60
2022-07-27T14:59:27.840Z,36.80
2022-07-27T15:01:59.064Z,36.80
2022-07-27T15:04:30.666Z,36.80
2022-07-27T15:07:02.203Z,36.70
2022-07-27T15:09:33.422Z,36.90
2022-07-27T15:12:04.932Z,37.20
2022-07-27T15:14:39.051Z,37.10
2022-07-27T15:17:09.998Z,36.90
2022-07-27T15:19:40.994Z,36.70
2022-07-27T15:22:11.952Z,36.10
2022-07-27T15:24:42.865Z,35.50
2022-07-27T15:27:14.087Z,35.10
2022-07-27T15:29:45.176Z,34.90
2022-07-27T15:32:16.219Z,34.90
2022-07-27T15:34:47.879Z,34.90
2022-07-27T15:37:18.818Z,34.70
2022-07-27T15:39:49.776Z,34.60
2022-07-27T15:42:21.583Z,34.60
2022-07-27T15:44:52.576Z,34.80
2022-07-27T15:47:24.043Z,34.90
2022-07-27T15:49:54.962Z,34.70
2022-07-27T15:52:25.896Z,34.90
2022-07-27T15:54:56.831Z,35.40
2022-07-27T15:57:27.847Z,35.80
2022-07-27T15:59:58.829Z,36.10
2022-07-27T16:02:29.876Z,36.80
2022-07-27T16:05:03.094Z,37.90
2022-07-27T16:07:41.727Z,38.80
2022-07-27T16:10:12.957Z,40.20
2022-07-27T16:12:44.051Z,40.50
2022-07-27T16:15:15.059Z,39.70
2022-07-27T16:17:46.103Z,39.00
2022-07-27T16:20:17.126Z,38.40
2022-07-27T16:22:48.115Z,37.60
2022-07-27T16:25:19.018Z,36.80
2022-07-27T16:27:50.058Z,36.30
2022-07-27T16:30:21.208Z,35.90
2022-07-27T16:32:52.252Z,36.10
2022-07-27T16:35:26.783Z,36.40
2022-07-27T16:37:57.805Z,36.70
2022-07-27T16:40:28.795Z,37.30
2022-07-27T16:42:59.732Z,37.60
2022-07-27T16:45:30.742Z,37.40
2022-07-27T16:48:01.712Z,37.50
2022-07-27T16:50:32.694Z,38.00
2022-07-27T16:53:03.874Z,38.70
2022-07-27T16:55:34.999Z,39.30
2022-07-27T16:58:05.987Z,39.50
2022-07-27T17:00:38.966Z,39.60
2022-07-27T17:03:10.439Z,39.80
2022-07-27T17:05:41.412Z,39.90
2022-07-27T17:08:12.390Z,39.90
2022-07-27T17:10:43.429Z,39.50
2022-07-27T17:13:19.175Z,38.90
2022-07-27T17:15:53.601Z,38.20
2022-07-27T17:18:24.720Z,37.60
2022-07-27T17:20:55.742Z,37.10
2022-07-27T17:23:26.778Z,36.60
2022-07-27T17:25:57.764Z,36.20
2022-07-27T17:28:28.764Z,35.90
2022-07-27T17:31:00.062Z,35.50
2022-07-27T17:33:31.180Z,35.20
2022-07-27T17:36:02.253Z,34.90
2022-07-27T17:38:33.237Z,34.50
2022-07-27T17:41:05.259Z,34.10
2022-07-27T17:43:38.609Z,33.60
2022-07-27T17:46:11.281Z,33.20
2022-07-27T17:48:42.333Z,33.10
2022-07-27T17:51:13.434Z,32.90
2022-07-27T17:53:44.555Z,32.70
2022-07-27T17:56:15.788Z,32.50
2022-07-27T17:58:48.086Z,32.30
2022-07-27T18:01:46.556Z,32.20
2022-07-27T18:04:10.402Z,31.90
2022-07-27T18:06:41.404Z,31.50
2022-07-27T18:09:12.618Z,31.20
2022-07-27T18:11:44.022Z,31.00
2022-07-27T18:14:14.995Z,30.70
2022-07-27T18:16:46.015Z,30.50
2022-07-27T18:19:17.204Z,30.30
2022-07-27T18:21:48.480Z,30.10
2022-07-27T18:24:23.680Z,29.90
2022-07-27T18:26:59.343Z,29.70
2022-07-27T18:29:30.271Z,29.50
2022-07-27T18:32:01.235Z,29.40
2022-07-27T18:34:32.528Z,29.20
2022-07-27T18:37:03.525Z,29.00
2022-07-27T18:39:34.488Z,28.80
2022-07-27T18:42:05.520Z,28.60
2022-07-27T18:44:38.972Z,28.50
2022-07-27T18:47:10.142Z,28.30
2022-07-27T18:49:41.040Z,28.00
2022-07-27T18:52:12.026Z,27.90
2022-07-27T18:54:43.531Z,27.70
2022-07-27T18:57:14.417Z,27.60
2022-07-27T18:59:47.833Z,27.50
2022-07-27T19:02:20.381Z,27.40
2022-07-27T19:04:51.393Z,27.20
2022-07-27T19:07:22.260Z,27.10
2022-07-27T19:09:54.890Z,27.00
2022-07-27T19:12:26.110Z,27.00
2022-07-27T19:14:57.996Z,26.90
2022-07-27T19:17:29.017Z,26.80
2022-07-27T19:19:59.970Z,26.70
2022-07-27T19:22:31.246Z,26.60
2022-07-27T19:25:02.250Z,26.50
2022-07-27T19:27:33.134Z,26.50
2022-07-27T19:30:12.271Z,26.40
2022-07-27T19:32:43.281Z,26.40
2022-07-27T19:35:15.278Z,26.30
2022-07-27T19:37:46.263Z,26.10
2022-07-27T19:40:43.349Z,26.10
2022-07-27T19:43:08.092Z,26.00
2022-07-27T19:45:39.038Z,25.90
2022-07-27T19:48:10.458Z,25.80
2022-07-27T19:50:42.166Z,25.80
2022-07-27T19:53:13.256Z,25.70
2022-07-27T19:55:44.389Z,25.60
2022-07-27T19:58:15.565Z,25.60
2022-07-27T20:00:46.534Z,25.50
2022-07-27T20:03:20.422Z,25.40
2022-07-27T20:05:51.502Z,25.30
2022-07-27T20:08:22.528Z,25.20
2022-07-27T20:10:53.462Z,25.10
2022-07-27T20:13:24.336Z,25.00
2022-07-27T20:15:55.271Z,24.90
2022-07-27T20:18:27.736Z,24.70
2022-07-27T20:20:58.686Z,24.70
2022-07-27T20:23:29.636Z,24.60
2022-07-27T20:26:00.607Z,24.50
2022-07-27T20:28:31.467Z,24.40
2022-07-27T20:31:02.390Z,24.30
2022-07-27T20:33:33.361Z,24.20
2022-07-27T20:36:04.949Z,24.10
2022-07-27T20:38:35.840Z,24.00
2022-07-27T20:41:06.856Z,23.90
2022-07-27T20:43:37.878Z,23.90
2022-07-27T20:46:09.225Z,23.70
2022-07-27T20:48:41.553Z,23.70
2022-07-27T20:51:12.476Z,23.60
2022-07-27T20:53:43.362Z,23.60
2022-07-27T20:56:14.497Z,23.50
2022-07-27T20:58:45.391Z,23.50
2022-07-27T21:01:16.368Z,23.50
2022-07-27T21:03:47.269Z,23.40
2022-07-27T21:06:18.150Z,23.40
2022-07-27T21:08:49.044Z,23.40
2022-07-27T21:11:20.314Z,23.40
2022-07-27T21:13:53.392Z,23.30
2022-07-27T21:16:24.370Z,23.30
2022-07-27T21:18:55.527Z,23.30
2022-07-27T21:21:27.719Z,23.30
2022-07-27T21:24:18.329Z,23.30
2022-07-27T21:26:51.922Z,23.30
2022-07-27T21:29:23.802Z,23.20
2022-07-27T21:31:54.737Z,23.20
2022-07-27T21:34:25.860Z,23.10
2022-07-27T21:36:56.784Z,23.10
2022-07-27T21:39:28.892Z,23.10
2022-07-27T21:42:02.079Z,23.00
2022-07-27T21:44:33.531Z,22.90
2022-07-27T21:47:11.408Z,22.80
2022-07-27T21:49:44.337Z,22.80
2022-07-27T21:52:15.632Z,22.70
2022-07-27T21:54:46.531Z,22.70
2022-07-27T21:57:17.455Z,22.60
2022-07-27T21:59:48.311Z,22.60
2022-07-27T22:02:19.446Z,22.50
2022-07-27T22:04:50.407Z,22.40
2022-07-27T22:07:22.162Z,22.40
2022-07-27T22:09:53.073Z,22.30
2022-07-27T22:12:23.998Z,22.30
2022-07-27T22:14:55.001Z,22.20
2022-07-27T22:17:26.059Z,22.20
2022-07-27T22:19:56.923Z,22.10
2022-07-27T22:22:28.400Z,22.00
2022-07-27T22:24:59.282Z,21.90
2022-07-27T22:27:30.189Z,21.90
2022-07-27T22:30:01.101Z,21.80
2022-07-27T22:32:31.975Z,21.80
2022-07-27T22:35:03.314Z,21.70
2022-07-27T22:37:34.252Z,21.70
2022-07-27T22:40:06.128Z,21.60
2022-07-27T22:42:37.023Z,21.60
2022-07-27T22:45:09.422Z,21.50
2022-07-27T22:47:40.567Z,21.50
2022-07-27T22:50:13.931Z,21.50
2022-07-27T22:52:49.173Z,21.40
2022-07-27T22:55:20.362Z,21.30
2022-07-27T22:57:51.817Z,21.30
2022-07-27T23:00:22.742Z,21.20
2022-07-27T23:02:53.936Z,21.20
2022-07-27T23:05:25.560Z,21.20
2022-07-27T23:07:56.532Z,21.10
2022-07-27T23:10:45.857Z,21.10
2022-07-27T23:13:19.098Z,21.00
2022-07-27T23:15:50.505Z,21.00
2022-07-27T23:18:25.035Z,20.90
2022-07-27T23:20:56.023Z,20.90
2022-07-27T23:23:27.775Z,20.90
2022-07-27T23:25:58.702Z,20.90
2022-07-27T23:28:29.582Z,20.90
2022-07-27T23:31:00.564Z,21.00
2022-07-27T23:33:31.466Z,20.90
2022-07-27T23:36:09.462Z,20.90
2022-07-27T23:38:40.451Z,20.90
2022-07-27T23:41:11.360Z,21.00
2022-07-27T23:43:42.223Z,20.90
2022-07-27T23:46:13.421Z,20.90
2022-07-27T23:48:44.410Z,20.80
2022-07-27T23:51:21.563Z,20.80
2022-07-27T23:53:52.493Z,20.80
2022-07-27T23:56:23.383Z,20.80
2022-07-27T23:58:54.249Z,20.70
